createdAt,value
2023-02-22T00:00:59.871Z,337.93
2023-02-22T00:03:32.431Z,394.77
2023-02-22T00:06:05.216Z,338.47
2023-02-22T00:08:36.626Z,352.53
2023-02-22T00:11:09.079Z,380.50
2023-02-22T00:13:37.874Z,335.60
2023-02-22T00:16:05.592Z,360.80
2023-02-22T00:18:32.687Z,356.67
2023-02-22T00:21:01.422Z,369.17
2023-02-22T00:23:31.114Z,341.27
2023-02-22T00:26:00.180Z,334.67
2023-02-22T00:28:27.955Z,377.57
2023-02-22T00:30:55.103Z,344.60
2023-02-22T00:33:23.254Z,337.00
2023-02-22T00:35:50.487Z,335.80
2023-02-22T00:38:19.534Z,389.50
2023-02-22T00:40:46.623Z,343.27
2023-02-22T00:43:14.365Z,343.37
2023-02-22T00:45:42.440Z,366.73
2023-02-22T00:48:10.472Z,356.43
2023-02-22T00:50:37.990Z,335.43
2023-02-22T00:53:07.346Z,345.80
2023-02-22T00:55:36.734Z,386.63
2023-02-22T00:58:05.270Z,338.27
2023-02-22T01:00:39.932Z,342.80
2023-02-22T01:03:10.550Z,369.47
2023-02-22T01:05:38.816Z,358.33
2023-02-22T01:08:08.549Z,328.87
2023-02-22T01:10:37.043Z,365.50
2023-02-22T01:13:08.897Z,377.27
2023-02-22T01:15:39.327Z,341.33
2023-02-22T01:18:08.020Z,342.03
2023-02-22T01:20:35.266Z,354.00
2023-02-22T01:23:07.105Z,327.67
2023-02-22T01:25:35.057Z,333.77
2023-02-22T01:28:03.574Z,341.40
2023-02-22T01:30:34.298Z,344.67
2023-02-22T01:33:04.025Z,344.47
2023-02-22T01:35:35.010Z,327.00
2023-02-22T01:38:02.327Z,366.40
2023-02-22T01:40:35.908Z,319.10
2023-02-22T01:43:15.576Z,331.17
2023-02-22T01:46:00.761Z,342.43
2023-02-22T01:48:45.877Z,343.20
2023-02-22T01:51:28.287Z,331.63
2023-02-22T01:53:59.247Z,320.07
2023-02-22T01:56:29.427Z,383.03
2023-02-22T01:59:06.899Z,348.30
2023-02-22T02:01:36.937Z,342.87
2023-02-22T02:04:10.624Z,346.13
2023-02-22T02:06:38.843Z,345.03
2023-02-22T02:09:17.788Z,332.03
2023-02-22T02:11:46.320Z,354.13
2023-02-22T02:14:14.331Z,328.47
2023-02-22T02:16:45.884Z,344.00
2023-02-22T02:19:46.239Z,372.30
2023-02-22T02:22:47.126Z,334.07
2023-02-22T02:25:54.679Z,329.70
2023-02-22T02:28:51.087Z,314.03
2023-02-22T02:31:54.994Z,341.30
2023-02-22T02:34:35.990Z,343.77
2023-02-22T02:37:15.648Z,354.07
2023-02-22T02:39:57.515Z,380.83
2023-02-22T02:42:34.357Z,336.63
2023-02-22T02:45:18.573Z,344.10
2023-02-22T02:47:53.490Z,360.03
2023-02-22T02:50:25.594Z,342.80
2023-02-22T02:52:55.801Z,373.10
2023-02-22T02:55:23.525Z,355.77
2023-02-22T02:57:50.485Z,325.97
2023-02-22T03:00:24.977Z,373.10
2023-02-22T03:03:06.252Z,350.13
2023-02-22T03:06:40.439Z,325.80
2023-02-22T03:09:21.522Z,361.00
2023-02-22T03:12:08.361Z,340.37
2023-02-22T03:14:38.676Z,369.30
2023-02-22T03:17:19.249Z,333.20
2023-02-22T03:19:52.580Z,339.00
2023-02-22T03:22:48.112Z,340.37
2023-02-22T03:25:34.205Z,372.03
2023-02-22T03:28:07.622Z,330.17
2023-02-22T03:30:50.969Z,350.70
2023-02-22T03:33:44.734Z,338.80
2023-02-22T03:36:21.115Z,373.47
2023-02-22T03:38:50.310Z,367.40
2023-02-22T03:41:25.176Z,338.00
2023-02-22T03:44:14.240Z,379.97
2023-02-22T03:46:42.894Z,338.70
2023-02-22T03:49:22.224Z,367.73
2023-02-22T03:51:49.212Z,350.87
2023-02-22T03:54:16.739Z,336.97
2023-02-22T03:57:24.972Z,369.87
2023-02-22T03:59:51.880Z,332.80
2023-02-22T04:02:19.560Z,396.37
2023-02-22T04:04:47.607Z,384.57
2023-02-22T04:07:14.988Z,325.13
2023-02-22T04:09:41.969Z,357.33
2023-02-22T04:12:09.063Z,350.00
2023-02-22T04:14:36.092Z,333.07
2023-02-22T04:17:03.065Z,332.70
2023-02-22T04:19:30.064Z,370.47
2023-02-22T04:21:57.065Z,339.57
2023-02-22T04:24:24.184Z,327.67
2023-02-22T04:26:51.109Z,344.90
2023-02-22T04:29:18.059Z,356.93
2023-02-22T04:31:45.159Z,326.83
2023-02-22T04:34:12.369Z,337.60
2023-02-22T04:36:39.426Z,337.73
2023-02-22T04:39:06.364Z,370.33
2023-02-22T04:41:34.544Z,334.17
2023-02-22T04:44:01.535Z,343.80
2023-02-22T04:46:28.700Z,379.60
2023-02-22T04:48:55.722Z,389.93
2023-02-22T04:51:22.678Z,339.30
2023-02-22T04:53:49.747Z,322.23
2023-02-22T04:56:20.351Z,343.13
2023-02-22T04:58:47.924Z,363.57
2023-02-22T05:01:16.893Z,333.73
2023-02-22T05:03:44.361Z,346.83
2023-02-22T05:06:12.492Z,391.57
2023-02-22T05:08:39.476Z,338.80
2023-02-22T05:11:06.881Z,341.87
2023-02-22T05:13:33.793Z,339.43
2023-02-22T05:16:00.899Z,371.43
2023-02-22T05:18:28.026Z,325.57
2023-02-22T05:20:55.008Z,341.70
2023-02-22T05:23:21.931Z,340.77
2023-02-22T05:25:48.997Z,392.60
2023-02-22T05:28:16.761Z,345.43
2023-02-22T05:30:43.843Z,339.03
2023-02-22T05:33:11.373Z,363.10
2023-02-22T05:35:38.298Z,372.93
2023-02-22T05:38:06.839Z,346.87
2023-02-22T05:40:35.028Z,403.57
2023-02-22T05:43:02.889Z,384.50
2023-02-22T05:45:38.749Z,337.30
2023-02-22T05:48:15.949Z,328.70
2023-02-22T05:50:45.659Z,374.60
2023-02-22T05:53:12.641Z,323.70
2023-02-22T05:55:40.253Z,336.67
2023-02-22T05:58:07.232Z,322.93
2023-02-22T06:00:34.195Z,381.10
2023-02-22T06:03:08.097Z,357.87
2023-02-22T06:05:36.325Z,321.23
2023-02-22T06:08:05.956Z,363.47
2023-02-22T06:10:33.733Z,354.03
2023-02-22T06:13:03.473Z,334.27
2023-02-22T06:15:30.639Z,322.50
2023-02-22T06:17:58.883Z,344.60
2023-02-22T06:20:28.979Z,353.07
2023-02-22T06:22:58.517Z,350.13
2023-02-22T06:25:31.501Z,383.33
2023-02-22T06:28:00.382Z,343.83
2023-02-22T06:30:28.997Z,383.60
2023-02-22T06:32:56.408Z,414.20
2023-02-22T06:35:23.748Z,345.23
2023-02-22T06:37:51.009Z,345.50
2023-02-22T06:40:18.305Z,329.30
2023-02-22T06:42:49.204Z,369.90
2023-02-22T06:45:18.241Z,341.17
2023-02-22T06:47:45.983Z,343.97
2023-02-22T06:52:53.177Z,325.50
2023-02-22T06:55:27.415Z,353.13
2023-02-22T06:57:54.441Z,339.30
2023-02-22T07:00:25.262Z,336.73
2023-02-22T07:02:53.902Z,330.13
2023-02-22T07:05:23.063Z,334.27
2023-02-22T07:07:55.501Z,334.43
2023-02-22T07:10:30.093Z,342.73
2023-02-22T07:12:57.295Z,329.47
2023-02-22T07:15:28.061Z,341.13
2023-02-22T07:17:55.644Z,332.77
2023-02-22T07:20:24.690Z,330.20
2023-02-22T07:22:52.045Z,342.63
2023-02-22T07:25:20.179Z,329.53
2023-02-22T07:27:48.685Z,336.33
2023-02-22T07:30:20.846Z,334.07
2023-02-22T07:32:48.122Z,333.73
2023-02-22T07:35:28.623Z,326.20
2023-02-22T07:37:58.591Z,322.60
2023-02-22T07:40:27.125Z,327.60
2023-02-22T07:43:01.305Z,325.40
2023-02-22T07:45:34.720Z,324.10
2023-02-22T07:48:04.203Z,329.53
2023-02-22T07:50:33.444Z,334.07
2023-02-22T07:53:06.632Z,334.53
2023-02-22T07:55:34.694Z,351.63
2023-02-22T07:58:05.930Z,338.13
2023-02-22T08:00:39.321Z,331.57
2023-02-22T08:03:14.720Z,330.57
2023-02-22T08:05:51.641Z,349.13
2023-02-22T08:08:20.065Z,351.53
2023-02-22T08:10:48.733Z,345.30
2023-02-22T08:13:16.353Z,322.60
2023-02-22T08:15:44.326Z,331.23
2023-02-22T08:18:15.753Z,326.93
2023-02-22T08:20:45.283Z,323.47
2023-02-22T08:23:14.484Z,328.53
2023-02-22T08:25:41.947Z,333.90
2023-02-22T08:28:13.204Z,345.43
2023-02-22T08:30:42.957Z,339.27
2023-02-22T08:33:14.600Z,334.93
2023-02-22T08:35:42.366Z,345.83
2023-02-22T08:38:27.543Z,332.87
2023-02-22T08:40:55.302Z,355.40
2023-02-22T08:43:23.164Z,344.60
2023-02-22T08:45:52.236Z,350.50
2023-02-22T08:48:20.369Z,350.40
2023-02-22T08:50:47.435Z,384.83
2023-02-22T08:53:16.515Z,351.80
2023-02-22T08:55:44.198Z,354.97
2023-02-22T08:58:12.200Z,332.10
2023-02-22T09:00:41.157Z,340.47
2023-02-22T09:03:13.427Z,343.03
2023-02-22T09:05:41.825Z,332.77
2023-02-22T09:08:08.960Z,339.73
2023-02-22T09:10:36.397Z,345.87
2023-02-22T09:13:05.844Z,357.20
2023-02-22T09:15:36.002Z,354.63
2023-02-22T09:18:04.393Z,369.30
2023-02-22T09:20:31.663Z,357.73
2023-02-22T09:22:59.621Z,363.10
2023-02-22T09:25:27.330Z,343.80
2023-02-22T09:27:55.454Z,375.73
2023-02-22T09:30:32.846Z,374.07
2023-02-22T09:33:07.126Z,356.17
2023-02-22T09:35:36.546Z,348.33
2023-02-22T09:38:08.079Z,352.97
2023-02-22T09:40:45.080Z,353.83
2023-02-22T09:43:21.069Z,351.43
2023-02-22T09:46:22.490Z,368.70
2023-02-22T09:49:06.680Z,363.13
2023-02-22T09:51:44.968Z,355.02
2023-02-22T09:54:43.453Z,367.37
2023-02-22T09:57:21.708Z,378.90
2023-02-22T10:00:13.861Z,363.77
2023-02-22T10:03:33.154Z,360.55
2023-02-22T10:06:06.727Z,378.63
2023-02-22T10:08:34.642Z,363.35
2023-02-22T10:11:19.964Z,361.27
2023-02-22T10:14:24.405Z,371.20
2023-02-22T10:17:06.856Z,369.40
2023-02-22T10:19:54.704Z,382.10
2023-02-22T10:22:59.233Z,365.70
2023-02-22T10:25:29.003Z,380.75
2023-02-22T10:28:03.863Z,372.75
2023-02-22T10:30:39.902Z,367.98
2023-02-22T10:33:21.536Z,371.90
2023-02-22T10:35:51.666Z,361.70
2023-02-22T10:38:24.449Z,380.77
2023-02-22T10:41:20.097Z,390.67
2023-02-22T10:43:47.265Z,375.30
2023-02-22T10:46:18.205Z,392.42
2023-02-22T10:48:49.991Z,382.80
2023-02-22T10:51:17.384Z,404.35
2023-02-22T10:53:45.826Z,392.02
2023-02-22T10:56:25.767Z,386.73
2023-02-22T10:59:04.310Z,403.73
2023-02-22T11:01:34.607Z,394.35
2023-02-22T11:04:15.834Z,385.75
2023-02-22T11:07:00.781Z,383.05
2023-02-22T11:09:29.134Z,385.35
2023-02-22T11:12:19.693Z,397.98
2023-02-22T11:14:46.857Z,386.52
2023-02-22T11:17:28.963Z,393.92
2023-02-22T11:19:56.710Z,405.02
2023-02-22T11:22:41.463Z,402.02
2023-02-22T11:25:09.457Z,416.00
2023-02-22T11:27:47.118Z,402.77
2023-02-22T11:30:29.695Z,417.25
2023-02-22T11:33:11.179Z,409.00
2023-02-22T11:35:52.909Z,403.33
2023-02-22T11:38:32.764Z,415.92
2023-02-22T11:41:23.110Z,409.13
2023-02-22T11:43:52.071Z,411.95
2023-02-22T11:46:23.211Z,423.00
2023-02-22T11:49:09.752Z,424.65
2023-02-22T11:51:57.977Z,409.58
2023-02-22T11:54:46.377Z,414.80
2023-02-22T11:57:50.428Z,416.77
2023-02-22T12:00:48.576Z,429.17
2023-02-22T12:03:51.650Z,417.85
2023-02-22T12:06:54.535Z,414.95
2023-02-22T12:09:36.933Z,422.45
2023-02-22T12:12:27.080Z,426.42
2023-02-22T12:15:09.030Z,435.17
2023-02-22T12:18:29.039Z,439.48
2023-02-22T12:21:01.758Z,460.73
2023-02-22T12:23:46.405Z,480.98
2023-02-22T12:26:53.801Z,471.00
2023-02-22T12:29:47.510Z,471.52
2023-02-22T12:32:48.979Z,488.42
2023-02-22T12:35:54.089Z,507.13
2023-02-22T12:38:46.659Z,521.50
2023-02-22T12:41:29.978Z,530.03
2023-02-22T12:44:14.484Z,560.75
2023-02-22T12:46:53.689Z,547.72
2023-02-22T12:49:38.951Z,558.25
2023-02-22T12:52:25.979Z,581.97
2023-02-22T12:55:06.589Z,591.22
2023-02-22T12:58:16.308Z,586.75
2023-02-22T13:00:57.336Z,588.03
2023-02-22T13:03:39.053Z,595.95
2023-02-22T13:06:42.616Z,603.53
2023-02-22T13:09:33.412Z,601.42
2023-02-22T13:12:21.156Z,609.22
2023-02-22T13:15:14.467Z,624.67
2023-02-22T13:18:02.808Z,633.97
2023-02-22T13:20:42.281Z,621.40
2023-02-22T13:23:31.529Z,624.00
2023-02-22T13:26:11.406Z,627.70
2023-02-22T13:29:05.110Z,628.65
2023-02-22T13:32:10.217Z,634.40
2023-02-22T13:34:56.907Z,621.88
2023-02-22T13:38:19.286Z,632.95
2023-02-22T13:41:31.809Z,617.33
2023-02-22T13:44:33.277Z,607.00
2023-02-22T13:47:44.131Z,598.30
2023-02-22T13:50:29.751Z,606.10
2023-02-22T13:52:59.812Z,606.88
2023-02-22T13:55:34.702Z,615.38
2023-02-22T13:58:11.983Z,610.63
2023-02-22T14:00:42.551Z,609.58
2023-02-22T14:03:16.684Z,597.28
2023-02-22T14:05:46.535Z,607.35
2023-02-22T14:08:19.653Z,599.97
2023-02-22T14:10:56.471Z,600.50
2023-02-22T14:13:55.710Z,594.67
2023-02-22T14:16:34.355Z,594.78
2023-02-22T14:19:09.390Z,594.78
2023-02-22T14:21:36.564Z,587.85
2023-02-22T14:24:12.614Z,591.95
2023-02-22T14:26:41.323Z,599.78
2023-02-22T14:29:08.280Z,590.10
2023-02-22T14:31:43.460Z,588.72
2023-02-22T14:34:13.024Z,593.92
2023-02-22T14:37:08.562Z,583.65
2023-02-22T14:39:46.147Z,589.20
2023-02-22T14:42:24.452Z,583.05
2023-02-22T14:45:05.031Z,595.03
2023-02-22T14:48:04.027Z,593.45
2023-02-22T14:50:52.872Z,580.55
2023-02-22T14:53:44.451Z,586.17
2023-02-22T14:56:25.565Z,578.58
2023-02-22T14:59:08.532Z,573.97
2023-02-22T15:01:53.189Z,565.45
2023-02-22T15:04:31.035Z,571.40
2023-02-22T15:07:01.231Z,583.92
2023-02-22T15:09:34.703Z,584.83
2023-02-22T15:12:05.456Z,586.22
2023-02-22T15:14:39.023Z,590.08
2023-02-22T15:17:18.242Z,568.88
2023-02-22T15:19:48.874Z,574.55
2023-02-22T15:22:26.660Z,554.55
2023-02-22T15:25:03.910Z,553.83
2023-02-22T15:27:37.238Z,543.92
2023-02-22T15:30:09.921Z,543.13
2023-02-22T15:32:50.144Z,534.70
2023-02-22T15:35:26.502Z,526.80
2023-02-22T15:38:18.271Z,519.58
2023-02-22T15:40:45.708Z,508.80
2023-02-22T15:43:20.303Z,515.08
2023-02-22T15:45:47.656Z,514.92
2023-02-22T15:48:15.981Z,519.53
2023-02-22T15:51:13.977Z,508.70
2023-02-22T15:53:51.626Z,517.50
2023-02-22T15:56:31.224Z,496.45
2023-02-22T15:59:12.796Z,488.05
2023-02-22T16:01:46.562Z,494.98
2023-02-22T16:04:27.281Z,482.35
2023-02-22T16:07:16.968Z,482.77
2023-02-22T16:09:50.456Z,469.52
2023-02-22T16:12:28.178Z,469.63
2023-02-22T16:15:00.751Z,464.50
2023-02-22T16:17:37.592Z,456.45
2023-02-22T16:20:14.454Z,447.58
2023-02-22T16:22:49.446Z,447.20
2023-02-22T16:25:19.533Z,449.10
2023-02-22T16:27:52.737Z,453.42
2023-02-22T16:30:25.064Z,448.23
2023-02-22T16:32:55.619Z,438.33
2023-02-22T16:35:29.090Z,428.27
2023-02-22T16:38:02.917Z,443.45
2023-02-22T16:40:47.080Z,426.25
2023-02-22T16:46:11.911Z,503.23
2023-02-22T16:48:46.070Z,509.35
2023-02-22T16:51:27.239Z,489.15
2023-02-22T16:53:56.014Z,453.95
2023-02-22T16:56:31.254Z,460.15
2023-02-22T16:59:06.773Z,437.85
2023-02-22T17:01:35.336Z,463.92
2023-02-22T17:04:02.849Z,471.17
2023-02-22T17:06:31.393Z,452.17
2023-02-22T17:09:04.031Z,463.35
2023-02-22T17:11:31.079Z,464.85
2023-02-22T17:13:58.292Z,434.80
2023-02-22T17:16:25.292Z,432.67
2023-02-22T17:18:52.666Z,457.27
2023-02-22T17:21:19.717Z,447.65
2023-02-22T17:23:47.525Z,408.50
2023-02-22T17:26:17.077Z,389.85
2023-02-22T17:28:44.973Z,403.13
2023-02-22T17:31:22.033Z,394.83
2023-02-22T17:33:51.477Z,395.17
2023-02-22T17:36:19.389Z,401.92
2023-02-22T17:38:46.419Z,397.95
2023-02-22T17:41:13.471Z,385.52
2023-02-22T17:43:40.456Z,395.88
2023-02-22T17:46:08.668Z,386.95
2023-02-22T17:48:36.226Z,395.70
2023-02-22T17:51:10.778Z,401.65
2023-02-22T17:53:39.060Z,419.10
2023-02-22T17:56:20.827Z,391.55
2023-02-22T17:58:55.427Z,402.73
2023-02-22T18:01:41.020Z,392.05
2023-02-22T18:04:17.006Z,390.70
2023-02-22T18:06:44.625Z,400.20
2023-02-22T18:09:12.121Z,383.90
2023-02-22T18:11:39.727Z,412.90
2023-02-22T18:14:10.179Z,394.63
2023-02-22T18:16:39.092Z,413.95
2023-02-22T18:19:06.646Z,396.15
2023-02-22T18:21:33.701Z,395.58
2023-02-22T18:24:00.796Z,422.42
2023-02-22T18:26:28.083Z,389.65
2023-02-22T18:28:57.088Z,382.35
2023-02-22T18:31:24.396Z,384.00
2023-02-22T18:33:53.157Z,404.08
2023-02-22T18:36:23.281Z,383.17
2023-02-22T18:38:54.230Z,406.60
2023-02-22T18:41:27.061Z,405.95
2023-02-22T18:44:00.049Z,391.50
2023-02-22T18:46:27.790Z,419.58
2023-02-22T18:48:56.722Z,389.38
2023-02-22T18:51:24.758Z,388.83
2023-02-22T18:53:56.973Z,388.73
2023-02-22T18:56:29.506Z,403.65
2023-02-22T18:59:02.465Z,390.90
2023-02-22T19:01:31.446Z,385.75
2023-02-22T19:04:00.379Z,387.45
2023-02-22T19:06:27.464Z,391.02
2023-02-22T19:08:54.596Z,381.80
2023-02-22T19:11:24.475Z,392.33
2023-02-22T19:13:56.298Z,396.63
2023-02-22T19:16:26.346Z,380.10
2023-02-22T19:18:57.498Z,425.70
2023-02-22T19:21:28.073Z,390.73
2023-02-22T19:23:56.026Z,401.15
2023-02-22T19:26:28.967Z,419.52
2023-02-22T19:28:58.904Z,389.33
2023-02-22T19:31:31.077Z,382.75
2023-02-22T19:34:06.080Z,367.23
2023-02-22T19:36:33.211Z,376.85
2023-02-22T19:39:03.080Z,384.98
2023-02-22T19:41:31.228Z,366.73
2023-02-22T19:43:59.095Z,433.17
2023-02-22T19:46:26.291Z,422.08
2023-02-22T19:49:16.286Z,382.33
2023-02-22T19:51:53.731Z,384.95
2023-02-22T19:54:22.243Z,375.63
2023-02-22T19:56:51.170Z,383.38
2023-02-22T19:59:23.724Z,359.65
2023-02-22T20:01:54.889Z,378.05
2023-02-22T20:04:23.115Z,368.67
2023-02-22T20:06:54.929Z,368.73
2023-02-22T20:09:47.341Z,387.48
2023-02-22T20:12:14.704Z,377.00
2023-02-22T20:14:43.429Z,373.98
2023-02-22T20:17:10.549Z,371.88
2023-02-22T20:19:41.160Z,370.73
2023-02-22T20:22:08.571Z,372.17
2023-02-22T20:24:35.611Z,379.30
2023-02-22T20:27:02.663Z,383.17
2023-02-22T20:29:29.957Z,401.90
2023-02-22T20:31:59.960Z,403.08
2023-02-22T20:34:31.448Z,403.80
2023-02-22T20:36:59.154Z,403.40
2023-02-22T20:39:26.430Z,378.73
2023-02-22T20:41:54.650Z,388.38
2023-02-22T20:44:22.750Z,373.58
2023-02-22T20:46:49.819Z,370.95
2023-02-22T20:49:20.214Z,378.67
2023-02-22T20:51:49.973Z,375.30
2023-02-22T20:54:17.864Z,380.80
2023-02-22T20:56:46.741Z,387.40
2023-02-22T20:59:17.322Z,383.60
2023-02-22T21:01:44.645Z,373.25
2023-02-22T21:04:12.153Z,362.20
2023-02-22T21:06:40.454Z,377.88
2023-02-22T21:09:15.017Z,370.10
2023-02-22T21:11:42.954Z,380.80
2023-02-22T21:14:16.789Z,381.38
2023-02-22T21:16:46.698Z,381.60
2023-02-22T21:19:25.678Z,372.17
2023-02-22T21:21:58.722Z,373.02
2023-02-22T21:24:28.277Z,368.92
2023-02-22T21:26:58.782Z,373.15
2023-02-22T21:29:26.718Z,368.92
2023-02-22T21:31:54.374Z,374.20
2023-02-22T21:34:22.492Z,364.98
2023-02-22T21:36:50.637Z,366.70
2023-02-22T21:39:20.748Z,372.65
2023-02-22T21:41:51.212Z,374.25
2023-02-22T21:44:19.054Z,366.33
2023-02-22T21:46:49.979Z,380.08
2023-02-22T21:49:17.795Z,391.13
2023-02-22T21:51:45.041Z,367.73
2023-02-22T21:54:13.079Z,370.38
2023-02-22T21:56:42.954Z,380.85
2023-02-22T21:59:23.562Z,361.55
2023-02-22T22:01:56.237Z,374.27
2023-02-22T22:04:30.051Z,363.75
2023-02-22T22:07:00.106Z,375.02
2023-02-22T22:09:37.800Z,366.88
2023-02-22T22:12:05.637Z,383.38
2023-02-22T22:14:34.860Z,364.05
2023-02-22T22:17:05.524Z,367.35
2023-02-22T22:19:39.379Z,373.27
2023-02-22T22:22:07.905Z,368.40
2023-02-22T22:24:35.149Z,361.33
2023-02-22T22:27:06.627Z,384.25
2023-02-22T22:29:34.558Z,366.75
2023-02-22T22:32:02.886Z,366.85
2023-02-22T22:34:30.292Z,367.98
2023-02-22T22:36:58.661Z,381.05
2023-02-22T22:39:26.892Z,368.50
2023-02-22T22:41:54.120Z,373.52
2023-02-22T22:44:24.314Z,375.75
2023-02-22T22:46:54.930Z,376.50
2023-02-22T22:49:24.090Z,373.40
2023-02-22T22:51:51.332Z,375.30
2023-02-22T22:54:18.477Z,375.85
2023-02-22T22:56:45.513Z,370.42
2023-02-22T22:59:13.537Z,369.90
2023-02-22T23:01:45.017Z,370.75
2023-02-22T23:04:18.890Z,379.45
2023-02-22T23:06:51.090Z,369.20
2023-02-22T23:09:30.456Z,361.73
2023-02-22T23:12:24.212Z,365.27
2023-02-22T23:14:52.176Z,379.42
2023-02-22T23:17:31.441Z,358.60
2023-02-22T23:19:58.625Z,365.48
2023-02-22T23:22:25.623Z,376.27
2023-02-22T23:24:52.694Z,378.92
2023-02-22T23:27:19.666Z,373.08
2023-02-22T23:29:47.128Z,370.20
2023-02-22T23:32:14.553Z,370.02
2023-02-22T23:34:41.927Z,370.20
2023-02-22T23:37:10.652Z,373.73
2023-02-22T23:39:38.110Z,371.08
2023-02-22T23:42:05.255Z,366.95
2023-02-22T23:44:32.616Z,378.98
2023-02-22T23:46:59.870Z,364.13
2023-02-22T23:49:38.008Z,391.02
2023-02-22T23:52:08.282Z,371.13
2023-02-22T23:54:40.389Z,364.92
2023-02-22T23:57:08.974Z,377.15
2023-02-22T23:59:37.375Z,373.48
